Time;durP1;ratioP1;P1;durP2;ratioP2;P2;SDS_P1;SDS_P2;PMS_P1;PMS_P2;Temp;Humidity;BMP_temperature;BMP_pressure;BME280_temperature;BME280_humidity;BME280_pressure;Samples;Min_cycle;Max_cycle;Signal;HPM_P1;HPM_P2
2022/06/03 00:01:59;;;;;;;0.90;0.90;;;11.30;1.40;;;12.56;100.00;95518.00;653588;216;34695;-75
2022/06/03 00:05:04;;;;;;;1.30;1.20;;;11.30;1.40;;;12.58;100.00;95513.97;650088;216;31501;-76
2022/06/03 00:10:57;;;;;;;0.70;0.70;;;11.30;1.40;;;12.57;100.00;95518.30;647264;216;31593;-75
2022/06/03 00:13:56;;;;;;;0.70;0.70;;;11.20;1.40;;;12.51;100.00;95521.53;648582;216;31532;-75
2022/06/03 00:17:00;;;;;;;2.35;1.15;;;11.20;1.40;;;12.41;100.00;95513.72;615601;222;34198;-75
2022/06/03 00:19:49;;;;;;;1.50;0.80;;;11.20;1.40;;;12.41;100.00;95506.61;647018;216;31552;-75
2022/06/03 00:25:18;;;;;;;1.83;1.15;;;11.10;1.40;;;12.41;100.00;95504.69;645433;216;32134;-75
2022/06/03 00:30:44;;;;;;;1.33;0.80;;;11.10;1.40;;;12.34;100.00;95496.64;643979;216;31687;-75
2022/06/03 00:36:22;;;;;;;1.15;0.82;;;11.00;1.40;;;12.26;100.00;95499.80;645370;216;31564;-76
2022/06/03 00:42:18;;;;;;;1.00;0.90;;;11.00;1.40;;;12.30;100.00;95491.10;621132;225;32414;-75
2022/06/03 00:45:08;;;;;;;1.23;0.93;;;11.00;1.40;;;12.20;100.00;95489.28;648241;216;31498;-75
2022/06/03 00:48:26;;;;;;;0.90;0.62;;;10.90;1.40;;;12.15;100.00;95493.38;646321;216;31552;-76
2022/06/03 00:51:17;;;;;;;2.40;1.10;;;11.00;1.40;;;12.18;100.00;95486.55;644639;216;34899;-75
2022/06/03 00:57:04;;;;;;;1.02;0.77;;;11.00;1.40;;;12.14;100.00;95490.19;651154;212;32151;-76
2022/06/03 01:02:36;;;;;;;1.33;0.77;;;10.80;1.40;;;12.07;100.00;95490.14;643893;216;31825;-75
2022/06/03 01:05:21;;;;;;;0.80;0.80;;;10.80;1.40;;;12.06;100.00;95492.46;647502;212;32466;-75
2022/06/03 01:08:06;;;;;;;1.30;1.20;;;10.70;1.40;;;11.98;100.00;95487.77;646507;212;32042;-75
2022/06/03 01:11:09;;;;;;;0.80;0.50;;;10.70;1.40;;;11.95;100.00;95480.56;644337;216;34035;-75
2022/06/03 01:14:13;;;;;;;1.20;0.90;;;10.70;1.40;;;11.89;100.00;95474.83;645252;212;32071;-75
2022/06/03 01:16:59;;;;;;;1.40;1.30;;;10.70;1.40;;;11.82;100.00;95473.43;644256;216;32990;-75
2022/06/03 01:20:02;;;;;;;1.80;1.48;;;10.60;1.40;;;11.82;100.00;95473.55;643283;216;31678;-75
2022/06/03 01:23:24;;;;;;;1.80;0.62;;;10.60;1.40;;;11.89;100.00;95466.59;641839;216;31531;-75
2022/06/03 01:28:53;;;;;;;0.98;0.95;;;10.80;1.40;;;12.03;100.00;95473.67;622538;226;32022;-75
2022/06/03 01:35:58;;;;;;;0.50;0.50;;;10.90;1.40;;;11.92;100.00;95465.81;649490;212;42177;-75
2022/06/03 01:39:10;;;;;;;0.50;0.50;;;10.80;1.40;;;11.92;100.00;95458.92;649885;212;34423;-75
2022/06/03 01:42:28;;;;;;;0.90;0.70;;;10.70;1.40;;;11.85;100.00;95452.55;649425;216;31480;-75
2022/06/03 01:45:11;;;;;;;1.10;0.80;;;10.60;1.40;;;11.82;100.00;95445.47;648083;216;31600;-75
2022/06/03 01:47:58;;;;;;;1.30;0.90;;;10.60;1.40;;;11.77;100.00;95443.78;648860;216;42167;-75
2022/06/03 01:51:03;;;;;;;1.77;1.13;;;10.70;1.40;;;11.74;100.00;95443.03;615506;225;31869;-75
2022/06/03 01:54:13;;;;;;;2.70;0.87;;;10.70;1.40;;;11.90;100.00;95446.13;650940;216;31593;-75
2022/06/03 01:56:59;;;;;;;0.80;0.60;;;10.70;1.40;;;11.82;100.00;95453.34;648705;216;32115;-75
2022/06/03 02:03:02;;;;;;;0.90;0.60;;;10.60;1.40;;;11.73;100.00;95458.23;649869;216;32212;-75
2022/06/03 02:08:36;;;;;;;1.30;0.70;;;10.60;1.40;;;11.81;100.00;95463.86;648436;216;31566;-75
2022/06/03 02:11:37;;;;;;;0.83;0.73;;;10.60;1.40;;;11.72;100.00;95465.09;649867;212;31521;-76
2022/06/03 02:14:35;;;;;;;1.95;1.08;;;10.60;1.40;;;11.68;100.00;95461.65;651099;216;31627;-75
2022/06/03 02:17:33;;;;;;;7.70;0.98;;;10.50;1.40;;;11.70;100.00;95463.66;646641;212;33468;-75
2022/06/03 02:23:45;;;;;;;0.88;0.85;;;10.60;1.40;;;11.78;100.00;95469.58;619671;226;31843;-75
2022/06/03 02:26:35;;;;;;;1.70;1.40;;;10.50;1.40;;;11.78;100.00;95464.45;650174;216;31501;-75
2022/06/03 02:36:03;;;;;;;1.10;0.65;;;10.40;1.40;;;11.53;100.00;95432.44;642510;216;31577;-75
2022/06/03 02:38:52;;;;;;;2.07;1.00;;;10.40;1.40;;;11.58;100.00;95433.06;646144;212;31467;-76
2022/06/03 02:42:01;;;;;;;1.60;1.00;;;10.40;1.40;;;11.65;100.00;95436.68;648842;216;31543;-75
2022/06/03 02:44:51;;;;;;;0.80;0.80;;;10.50;1.40;;;11.68;100.00;95432.31;650158;216;32087;-75
2022/06/03 02:47:52;;;;;;;2.90;1.50;;;10.50;1.40;;;11.68;100.00;95427.25;623999;222;31857;-75
2022/06/03 02:50:56;;;;;;;2.10;1.12;;;10.50;1.40;;;11.67;100.00;95418.75;652737;216;31468;-75
2022/06/03 02:59:24;;;;;;;1.60;0.75;;;10.20;1.40;;;11.37;100.00;95427.28;646906;212;31519;-75
2022/06/03 03:02:18;;;;;;;0.60;0.60;;;10.20;1.40;;;11.15;100.00;95453.55;648730;216;31555;-75
2022/06/03 03:07:50;;;;;;;1.08;1.00;;;10.00;1.40;;;10.99;100.00;95463.78;651527;212;31630;-76
2022/06/03 03:13:24;;;;;;;0.73;0.73;;;9.90;1.40;;;11.01;100.00;95444.48;651613;212;31515;-75
2022/06/03 03:16:34;;;;;;;1.10;1.00;;;9.80;1.40;;;11.01;100.00;95444.42;652840;216;31548;-75
2022/06/03 03:21:59;;;;;;;1.35;1.25;;;9.90;1.40;;;11.05;100.00;95454.22;653444;216;42159;-75
2022/06/03 03:24:57;;;;;;;1.10;1.00;;;9.80;1.40;;;11.09;100.00;95451.63;650829;216;31544;-75
2022/06/03 03:30:31;;;;;;;2.40;1.10;;;9.90;1.40;;;11.15;100.00;95463.52;615173;222;31838;-75
2022/06/03 03:36:01;;;;;;;0.70;0.60;;;10.00;1.40;;;11.14;100.00;95459.37;650154;212;31583;-78
2022/06/03 03:39:17;;;;;;;1.00;0.80;;;10.00;1.40;;;11.18;100.00;95456.55;652824;212;31923;-75
2022/06/03 03:42:22;;;;;;;1.00;0.90;;;10.00;1.40;;;11.25;100.00;95456.47;644567;212;31581;-76
2022/06/03 03:45:15;;;;;;;3.40;1.23;;;10.10;1.40;;;11.27;100.00;95454.97;618066;226;31846;-75
2022/06/03 03:51:19;;;;;;;1.80;1.20;;;10.10;1.40;;;11.38;100.00;95463.39;646298;212;31613;-75
2022/06/03 03:54:10;;;;;;;2.00;1.10;;;10.30;1.40;;;11.47;100.00;95464.81;645525;216;42754;-75
2022/06/03 03:57:21;;;;;;;2.13;0.97;;;10.40;1.40;;;11.57;100.00;95472.30;655473;216;31639;-75
2022/06/03 04:00:21;;;;;;;1.02;0.90;;;10.50;1.40;;;11.55;100.00;95480.67;645430;216;31548;-75
2022/06/03 04:03:30;;;;;;;0.77;0.57;;;10.40;1.40;;;11.54;100.00;95484.11;618177;222;32036;-75
2022/06/03 04:06:40;;;;;;;1.00;0.70;;;10.40;1.40;;;11.61;100.00;95478.70;647776;216;32029;-75
2022/06/03 04:09:58;;;;;;;1.70;1.50;;;10.40;1.40;;;11.63;100.00;95478.61;651283;216;31536;-75
2022/06/03 04:13:08;;;;;;;1.73;1.00;;;10.30;1.40;;;11.66;100.00;95476.40;655421;216;31515;-75
2022/06/03 04:16:02;;;;;;;0.70;0.70;;;10.40;1.40;;;11.61;100.00;95474.95;647570;216;31532;-75
2022/06/03 04:18:53;;;;;;;1.60;0.90;;;10.40;1.40;;;11.60;100.00;95480.74;650677;212;31855;-75
2022/06/03 04:22:03;;;;;;;0.90;0.70;;;10.50;1.40;;;11.63;100.00;95488.53;646141;212;31724;-76
2022/06/03 04:27:48;;;;;;;1.20;1.10;;;10.80;1.40;;;11.96;100.00;95484.34;649662;216;32085;-75
2022/06/03 04:30:57;;;;;;;0.73;0.60;;;11.10;1.40;;;12.25;100.00;95478.97;646887;216;31552;-75
2022/06/03 04:36:09;;;;;;;1.75;1.42;;;11.50;1.40;;;12.71;100.00;95476.80;649073;216;31651;-75
2022/06/03 04:39:13;;;;;;;2.55;2.10;;;11.80;1.40;;;13.02;100.00;95477.01;650436;212;31485;-75
2022/06/03 04:42:29;;;;;;;2.10;1.60;;;12.00;1.40;;;13.31;100.00;95479.91;644192;216;34122;-80
2022/06/03 04:45:30;;;;;;;1.33;1.23;;;12.30;1.40;;;13.53;100.00;95484.28;643713;216;31902;-75
2022/06/03 04:48:42;;;;;;;2.10;1.60;;;12.50;1.40;;;13.69;100.00;95487.09;645839;212;31562;-76
2022/06/03 04:51:43;;;;;;;1.70;1.20;;;12.70;1.40;;;14.01;100.00;95487.33;623007;226;42498;-75
2022/06/03 04:54:49;;;;;;;2.40;1.10;;;12.90;1.40;;;14.36;100.00;95485.08;650260;216;31561;-75
2022/06/03 04:57:36;;;;;;;1.98;1.42;;;13.20;1.40;;;14.65;100.00;95484.28;616511;226;31871;-76
2022/06/03 05:00:36;;;;;;;2.40;1.40;;;13.30;1.40;;;14.66;100.00;95480.95;650110;216;31565;-74
2022/06/03 05:03:28;;;;;;;2.30;2.10;;;13.30;1.40;;;14.56;100.00;95484.55;655033;216;31475;-74
2022/06/03 05:06:33;;;;;;;2.42;1.55;;;13.40;1.40;;;14.53;100.00;95482.60;646995;216;32468;-74
2022/06/03 05:09:24;;;;;;;1.20;1.10;;;13.40;1.40;;;14.60;100.00;95482.23;644280;216;32046;-74
2022/06/03 05:12:31;;;;;;;1.40;1.30;;;13.40;1.40;;;14.63;100.00;95475.66;642308;216;31557;-74
2022/06/03 05:21:10;;;;;;;2.30;1.80;;;13.40;1.40;;;14.82;100.00;95466.81;650480;216;31549;-74
2022/06/03 05:24:14;;;;;;;0.98;0.88;;;13.40;1.40;;;14.87;100.00;95461.31;647404;216;31530;-76
2022/06/03 05:27:17;;;;;;;2.78;1.80;;;13.50;1.40;;;14.90;100.00;95464.71;616210;222;31869;-76
2022/06/03 05:30:06;;;;;;;2.40;2.17;;;13.70;1.40;;;14.98;100.00;95460.08;651617;216;31529;-75
2022/06/03 05:36:21;;;;;;;1.40;1.10;;;14.00;1.40;;;15.16;100.00;95464.06;651526;216;31538;-78
2022/06/03 05:44:26;;;;;;;1.70;1.10;;;13.60;1.40;;;15.01;100.00;95448.08;637648;221;42129;-78
2022/06/03 05:47:16;;;;;;;1.27;1.17;;;13.60;1.40;;;15.10;100.00;95447.59;646697;215;31719;-75
2022/06/03 05:50:04;;;;;;;1.40;0.90;;;13.60;1.40;;;15.22;100.00;95443.66;650322;216;31566;-74
2022/06/03 05:52:48;;;;;;;1.10;1.00;;;13.80;1.40;;;15.38;100.00;95439.97;646826;212;32211;-74
2022/06/03 05:55:55;;;;;;;1.05;0.95;;;13.90;1.40;;;15.49;100.00;95441.41;622005;226;31848;-74
2022/06/03 05:58:45;;;;;;;1.33;1.00;;;14.00;1.40;;;15.75;100.00;95446.94;646546;212;31579;-75
2022/06/03 06:01:31;;;;;;;2.10;1.70;;;14.30;1.40;;;16.08;100.00;95453.27;617952;226;31925;-74
2022/06/03 06:04:51;;;;;;;1.85;0.93;;;14.60;1.40;;;16.55;100.00;95445.72;648302;216;31515;-74
2022/06/03 06:07:44;;;;;;;0.77;0.77;;;15.20;1.40;;;17.30;100.00;95445.23;648524;212;31496;-74
2022/06/03 06:10:46;;;;;;;1.12;1.02;;;15.80;1.40;;;17.85;100.00;95449.83;654066;212;31515;-74
2022/06/03 06:13:52;;;;;;;1.10;1.00;;;16.00;1.40;;;17.94;100.00;95464.19;650783;216;31564;-74
2022/06/03 06:16:40;;;;;;;1.27;1.17;;;15.80;1.40;;;17.59;100.00;95476.70;645320;212;32058;-73
2022/06/03 06:19:38;;;;;;;1.60;1.50;;;15.80;1.40;;;17.54;100.00;95474.95;649151;216;31605;-74
2022/06/03 06:22:29;;;;;;;2.37;1.48;;;15.80;1.40;;;17.70;100.00;95468.63;646553;216;31612;-74
2022/06/03 06:25:14;;;;;;;1.60;1.50;;;16.20;1.40;;;17.98;100.00;95465.80;646271;212;31792;-74
2022/06/03 06:27:58;;;;;;;1.27;1.17;;;16.50;1.40;;;18.27;100.00;95470.02;650383;216;31681;-74
2022/06/03 06:31:04;;;;;;;2.25;1.20;;;16.80;1.40;;;18.48;100.00;95470.83;650468;216;31553;-74
2022/06/03 06:36:17;;;;;;;2.53;1.50;;;16.70;1.40;;;18.70;100.00;95471.73;650717;216;31551;-74
2022/06/03 06:39:07;;;;;;;1.40;1.10;;;16.80;1.40;;;18.84;100.00;95476.95;647410;216;31528;-75
2022/06/03 06:42:02;;;;;;;1.55;1.45;;;16.90;1.40;;;19.19;100.00;95472.98;643648;212;31571;-74
2022/06/03 06:44:55;;;;;;;2.10;1.43;;;17.10;1.40;;;19.34;100.00;95475.02;645629;212;31677;-75
2022/06/03 06:47:51;;;;;;;1.62;1.45;;;17.00;1.40;;;19.43;100.00;95469.47;645829;216;42584;-75
2022/06/03 06:50:42;;;;;;;1.90;1.50;;;17.20;1.40;;;19.73;100.00;95463.23;652433;216;31674;-74
2022/06/03 06:53:37;;;;;;;2.70;1.77;;;17.40;1.40;;;19.31;100.00;95455.73;648897;216;42949;-75
2022/06/03 06:56:32;;;;;;;2.33;2.00;;;17.30;1.40;;;18.84;100.00;95451.98;650353;216;31563;-74
2022/06/03 06:59:14;;;;;;;3.10;1.30;;;17.40;1.40;;;18.73;100.00;95448.81;644487;212;31588;-75
2022/06/03 07:02:03;;;;;;;1.37;1.27;;;17.50;1.40;;;18.81;100.00;95452.52;627701;217;32250;-75
2022/06/03 07:04:46;;;;;;;1.83;1.70;;;17.80;1.40;;;19.33;100.00;95448.67;623086;226;31912;-74
2022/06/03 07:07:33;;;;;;;1.58;1.17;;;18.30;1.40;;;19.63;100.00;95447.27;649581;216;31647;-75
2022/06/03 07:10:26;;;;;;;1.10;1.00;;;18.60;1.40;;;19.68;100.00;95444.82;639597;216;32063;-75
2022/06/03 07:13:10;;;;;;;1.33;1.17;;;18.70;1.40;;;19.81;100.00;95443.19;653479;216;42252;-75
2022/06/03 07:24:52;;;;;;;1.20;1.10;;;19.20;1.40;;;20.64;100.00;95426.55;647179;216;31526;-75
2022/06/03 07:28:01;;;;;;;1.30;1.20;;;19.70;1.40;;;20.78;100.00;95431.52;647172;216;31696;-75
2022/06/03 07:30:44;;;;;;;1.40;0.90;;;19.80;1.40;;;20.92;100.00;95433.34;650506;212;31537;-74
2022/06/03 07:35:54;;;;;;;0.87;0.70;;;20.00;1.40;;;21.25;100.00;95425.16;648521;212;32197;-74
2022/06/03 07:38:39;;;;;;;1.20;1.10;;;20.30;1.40;;;21.55;100.00;95430.17;654122;212;31579;-74
2022/06/03 07:41:39;;;;;;;1.00;0.90;;;20.60;1.40;;;21.82;100.00;95428.75;644557;216;31709;-74
2022/06/03 07:44:35;;;;;;;1.02;0.82;;;20.70;1.40;;;21.88;100.00;95426.15;644257;216;31907;-74
2022/06/03 07:47:20;;;;;;;1.35;1.25;;;20.90;1.40;;;22.05;100.00;95432.66;647385;216;31551;-74
2022/06/03 07:50:01;;;;;;;1.08;0.98;;;20.90;1.40;;;22.14;100.00;95436.21;644366;216;31475;-74
2022/06/03 07:52:46;;;;;;;0.95;0.85;;;21.00;1.40;;;22.25;100.00;95425.45;647091;212;31679;-75
2022/06/03 07:55:40;;;;;;;1.00;0.90;;;21.00;1.40;;;22.27;100.00;95424.63;622573;222;32413;-75
2022/06/03 07:58:22;;;;;;;1.30;0.85;;;20.90;1.40;;;22.49;100.00;95423.27;628481;222;31825;-75
2022/06/03 08:01:05;;;;;;;1.27;0.80;;;21.10;1.40;;;22.51;100.00;95420.61;647461;212;31502;-74
2022/06/03 08:03:50;;;;;;;1.10;0.70;;;21.30;1.40;;;22.62;100.00;95416.55;651510;216;32126;-74
2022/06/03 08:11:55;;;;;;;1.20;1.10;;;21.80;1.40;;;23.23;100.00;95419.28;649214;216;31719;-75
2022/06/03 08:14:37;;;;;;;2.87;1.00;;;21.70;1.40;;;23.20;100.00;95419.41;645004;216;31529;-75
2022/06/03 08:17:23;;;;;;;1.30;1.20;;;22.00;1.40;;;23.48;100.00;95413.72;647324;212;42321;-75
2022/06/03 08:20:04;;;;;;;0.85;0.80;;;22.30;1.40;;;23.72;100.00;95410.07;653823;216;38120;-75
2022/06/03 08:22:46;;;;;;;1.20;1.10;;;22.30;1.40;;;23.68;100.00;95412.64;648045;216;31464;-75
2022/06/03 08:25:27;;;;;;;1.33;1.10;;;22.40;1.40;;;24.04;100.00;95405.35;651475;216;44085;-74
2022/06/03 08:28:09;;;;;;;1.20;1.10;;;22.60;1.40;;;24.15;100.00;95398.72;644998;216;31523;-75
2022/06/03 08:30:51;;;;;;;1.10;1.00;;;22.80;1.40;;;24.26;100.00;95396.17;618322;226;31812;-75
2022/06/03 08:35:51;;;;;;;1.37;1.20;;;23.30;1.40;;;24.64;100.00;95400.81;645832;216;31718;-75
2022/06/03 08:38:34;;;;;;;1.23;1.12;;;23.30;1.40;;;24.58;100.00;95395.73;643564;215;31557;-75
2022/06/03 08:44:29;;;;;;;2.30;1.20;;;23.60;1.40;;;25.26;100.00;95388.64;615108;230;31919;-75
2022/06/03 08:47:12;;;;;;;2.50;1.10;;;23.90;1.40;;;25.41;100.00;95392.29;645254;216;31546;-75
2022/06/03 08:50:13;;;;;;;1.40;1.27;;;24.20;1.40;;;25.75;100.00;95392.51;644386;216;31601;-75
2022/06/03 08:53:41;;;;;;;1.30;1.10;;;24.20;1.40;;;25.16;100.00;95394.10;652773;212;31550;-75
2022/06/03 08:56:23;;;;;;;2.37;1.23;;;23.70;1.40;;;25.25;100.00;95396.99;621305;222;31933;-75
2022/06/03 08:59:06;;;;;;;1.50;1.12;;;24.00;1.40;;;25.64;100.00;95391.73;645977;216;31521;-75
2022/06/03 09:01:51;;;;;;;2.00;1.20;;;24.40;1.40;;;25.77;100.00;95389.78;646317;216;31549;-76
2022/06/03 09:04:35;;;;;;;2.37;1.40;;;24.50;1.40;;;26.17;100.00;95389.21;651774;216;32485;-75
2022/06/03 09:07:22;;;;;;;1.60;1.50;;;24.80;1.40;;;26.30;100.00;95386.56;647590;216;31870;-75
2022/06/03 09:10:19;;;;;;;1.62;1.52;;;25.10;1.40;;;26.58;99.12;95375.78;640268;216;31808;-75
2022/06/03 09:13:10;;;;;;;1.60;1.40;;;25.20;1.40;;;27.11;97.93;95376.19;651367;216;32085;-74
2022/06/03 09:15:52;;;;;;;1.42;1.30;;;25.30;1.40;;;26.91;96.51;95376.78;643481;216;32091;-75
2022/06/03 09:18:37;;;;;;;1.17;1.08;;;25.50;1.40;;;26.67;87.50;95376.52;646352;212;31647;-75
2022/06/03 09:21:24;;;;;;;1.10;0.98;;;25.80;1.40;;;27.71;89.14;95370.12;648233;216;31833;-76
2022/06/03 09:24:14;;;;;;;1.33;1.23;;;27.00;1.40;;;29.64;76.60;95363.42;648058;216;31635;-75
2022/06/03 09:26:56;;;;;;;2.00;1.10;;;31.00;1.40;;;29.84;70.65;95364.16;645287;212;31529;-75
2022/06/03 09:29:38;;;;;;;2.80;1.48;;;31.20;1.40;;;29.98;72.33;95356.09;618598;225;31990;-75
2022/06/03 09:32:20;;;;;;;4.53;1.40;;;30.70;1.40;;;29.94;72.95;95353.15;654319;216;31508;-75
2022/06/03 09:35:51;;;;;;;1.47;1.23;;;29.40;1.40;;;29.78;67.13;95348.22;651267;216;31535;-75
2022/06/03 09:38:42;;;;;;;1.40;1.30;;;29.40;1.40;;;30.38;66.67;95345.03;644493;216;31600;-75
2022/06/03 09:41:24;;;;;;;1.45;1.35;;;30.80;1.40;;;33.15;64.23;95336.70;643974;216;31945;-73
2022/06/03 09:44:06;;;;;;;1.87;1.77;;;32.40;1.40;;;34.92;63.65;95336.94;651639;216;32191;-75
2022/06/03 09:46:47;;;;;;;2.00;1.65;;;33.30;1.40;;;36.00;57.27;95329.11;646771;216;31709;-75
2022/06/03 09:49:29;;;;;;;1.58;1.48;;;33.70;1.40;;;35.96;54.92;95330.05;651490;216;31716;-74
2022/06/03 09:54:45;;;;;;;3.20;1.30;;;31.00;1.40;;;30.38;64.03;95331.61;645097;212;31849;-74
2022/06/03 10:00:03;;;;;;;1.77;1.30;;;30.80;1.40;;;34.54;55.37;95319.16;645794;216;31567;-76
2022/06/03 10:02:46;;;;;;;1.48;1.37;;;33.10;1.40;;;35.05;58.38;95315.98;647187;216;31902;-74
2022/06/03 10:05:27;;;;;;;1.60;1.50;;;33.10;1.40;;;36.78;50.31;95305.02;648851;216;31683;-73
2022/06/03 10:08:12;;;;;;;1.30;1.20;;;33.70;1.40;;;37.40;50.25;95303.05;645398;216;31674;-75
2022/06/03 10:13:33;;;;;;;2.20;1.55;;;33.30;1.40;;;35.64;49.39;95286.83;648770;212;31527;-74
2022/06/03 10:16:12;;;;;;;1.58;1.48;;;32.60;1.40;;;36.95;48.14;95274.42;651775;216;32059;-74
2022/06/03 10:18:56;;;;;;;1.73;1.62;;;33.50;1.40;;;33.69;47.76;95294.94;645784;212;31564;-74
2022/06/03 10:21:36;;;;;;;2.03;1.40;;;31.70;1.40;;;34.64;48.99;95287.39;618633;226;32420;-74
2022/06/03 10:24:18;;;;;;;2.17;1.48;;;32.50;1.40;;;36.85;47.57;95280.16;647889;216;31567;-74
2022/06/03 10:27:00;;;;;;;1.60;1.50;;;33.70;1.40;;;34.23;50.13;95290.13;650097;216;42130;-74
2022/06/03 10:29:46;;;;;;;1.00;1.00;;;31.90;1.40;;;37.64;45.18;95276.70;646615;212;32107;-74
2022/06/03 10:32:28;;;;;;;1.45;1.35;;;33.60;1.40;;;37.17;48.29;95275.25;622551;222;32116;-79
2022/06/03 10:35:51;;;;;;;1.60;1.50;;;33.20;1.40;;;37.09;47.28;95269.63;647601;216;42334;-74
2022/06/03 10:38:33;;;;;;;1.43;1.33;;;33.30;1.40;;;35.91;42.77;95268.92;617121;222;31871;-75
2022/06/03 10:41:15;;;;;;;1.40;1.30;;;33.00;1.40;;;37.93;44.60;95266.08;651057;216;31852;-75
2022/06/03 10:43:56;;;;;;;1.40;1.30;;;33.50;1.40;;;38.74;43.14;95261.82;624287;226;32379;-74
2022/06/03 10:46:38;;;;;;;3.70;1.33;;;33.30;1.40;;;40.60;40.95;95252.58;619743;225;33959;-74
2022/06/03 10:49:19;;;;;;;1.67;1.57;;;33.70;1.40;;;39.56;40.92;95257.45;645397;216;31512;-74
2022/06/03 11:02:58;;;;;;;1.23;1.10;;;30.30;1.40;;;36.18;44.91;95259.55;646341;216;31698;-74
2022/06/03 11:05:39;;;;;;;1.55;1.40;;;31.80;1.40;;;38.10;41.79;95247.02;649362;216;31498;-74
2022/06/03 11:08:21;;;;;;;1.60;1.50;;;32.20;1.40;;;35.77;44.12;95256.70;643668;216;32158;-73
2022/06/03 11:11:02;;;;;;;1.92;1.80;;;31.60;1.40;;;35.97;46.66;95250.17;646729;216;31709;-74
2022/06/03 11:13:44;;;;;;;1.85;1.70;;;32.00;1.40;;;37.24;46.74;95251.67;645753;216;31573;-74
2022/06/03 11:16:29;;;;;;;1.90;1.63;;;32.50;1.40;;;36.74;43.73;95251.11;644963;212;32173;-74
2022/06/03 11:19:18;;;;;;;1.70;1.60;;;32.20;1.40;;;38.40;42.25;95245.05;641825;216;31904;-74
2022/06/03 11:22:21;;;;;;;1.50;1.40;;;32.80;1.40;;;38.49;41.70;95246.13;654306;216;32161;-74
2022/06/03 11:25:22;;;;;;;2.90;1.60;;;33.10;1.40;;;40.13;38.10;95244.24;646177;216;31542;-75
2022/06/03 11:28:08;;;;;;;1.95;1.85;;;33.40;1.40;;;39.17;39.91;95244.37;647614;216;31528;-75
2022/06/03 11:30:53;;;;;;;1.50;1.40;;;33.10;1.40;;;40.65;39.96;95231.77;646973;212;31614;-74
2022/06/03 11:35:57;;;;;;;1.62;1.52;;;31.90;1.40;;;40.25;39.98;95237.87;649871;216;31633;-74
2022/06/03 11:38:42;;;;;;;2.20;1.60;;;33.20;1.40;;;40.63;38.97;95237.59;648047;216;31705;-74
2022/06/03 11:41:39;;;;;;;1.90;1.80;;;33.20;1.40;;;39.66;37.60;95244.35;649783;212;32213;-75
2022/06/03 11:44:26;;;;;;;2.03;1.70;;;33.50;1.40;;;39.64;38.44;95242.31;646735;216;31624;-74
2022/06/03 11:47:09;;;;;;;2.65;1.80;;;32.30;1.40;;;39.85;40.72;95243.16;649038;212;31668;-74
2022/06/03 11:49:51;;;;;;;3.75;1.95;;;31.90;1.40;;;36.49;45.14;95250.25;645603;216;42214;-75
2022/06/03 11:52:39;;;;;;;1.80;1.70;;;31.00;1.40;;;35.74;43.86;95244.55;650082;216;31574;-79
2022/06/03 11:55:26;;;;;;;1.85;1.75;;;30.70;1.40;;;35.16;44.45;95247.14;648696;216;31612;-74
2022/06/03 11:58:12;;;;;;;2.12;1.92;;;30.40;1.40;;;35.74;46.09;95247.63;651838;216;31962;-75
2022/06/03 12:00:56;;;;;;;2.00;1.90;;;30.90;1.40;;;33.11;49.88;95260.77;622990;226;31887;-73
2022/06/03 12:03:44;;;;;;;3.22;1.73;;;29.60;1.40;;;33.82;48.26;95264.72;652963;216;31857;-75
2022/06/03 12:06:28;;;;;;;1.90;1.70;;;30.30;1.40;;;37.06;44.70;95250.35;645929;216;31551;-74
2022/06/03 12:09:35;;;;;;;2.10;1.90;;;31.20;1.40;;;35.34;48.51;95253.23;645733;216;31673;-75
2022/06/03 12:15:41;;;;;;;2.35;2.10;;;30.30;1.40;;;34.46;50.55;95236.78;646358;216;31562;-75
2022/06/03 12:18:43;;;;;;;2.50;2.10;;;29.80;1.40;;;33.76;53.55;95235.87;646157;212;31598;-75
2022/06/03 12:21:46;;;;;;;4.10;1.85;;;29.80;1.40;;;34.42;48.91;95224.84;649762;216;31682;-75
2022/06/03 12:24:42;;;;;;;2.15;1.95;;;29.80;1.40;;;32.93;55.40;95225.79;618571;226;32054;-74
2022/06/03 12:27:31;;;;;;;2.10;1.90;;;29.10;1.40;;;33.33;53.04;95228.72;650596;216;31881;-74
2022/06/03 12:30:23;;;;;;;3.20;2.10;;;29.40;1.40;;;33.39;53.40;95231.13;645964;212;31548;-74
2022/06/03 12:35:53;;;;;;;2.30;2.10;;;29.30;1.40;;;32.95;55.30;95227.97;644522;215;31718;-74
2022/06/03 12:38:43;;;;;;;2.00;1.90;;;29.10;1.40;;;32.58;54.81;95221.30;647243;216;31872;-75
2022/06/03 12:41:41;;;;;;;1.80;1.70;;;28.80;1.40;;;33.24;53.18;95226.33;644924;212;31615;-74
2022/06/03 12:47:27;;;;;;;3.65;1.90;;;28.60;1.40;;;32.02;60.98;95220.16;649981;216;31738;-76
2022/06/03 12:50:29;;;;;;;1.40;1.30;;;28.10;1.40;;;31.64;59.43;95220.23;649356;212;42387;-74
2022/06/03 12:55:55;;;;;;;2.17;1.80;;;28.00;1.40;;;31.69;59.66;95202.97;650711;212;32072;-76
2022/06/03 12:58:45;;;;;;;4.15;2.00;;;27.80;1.40;;;31.86;57.85;95198.33;647876;216;31583;-76
2022/06/03 13:01:34;;;;;;;2.28;1.90;;;28.00;1.40;;;31.04;62.11;95195.61;620440;222;31985;-76
2022/06/03 13:04:33;;;;;;;1.90;1.67;;;27.70;1.40;;;30.50;65.76;95192.57;648608;216;31645;-74
2022/06/03 13:07:16;;;;;;;2.05;1.85;;;27.60;1.40;;;31.03;67.42;95184.29;653363;216;32133;-74
2022/06/03 13:10:13;;;;;;;2.40;1.90;;;27.60;1.40;;;31.09;67.05;95184.27;641396;216;31795;-74
2022/06/03 13:12:55;;;;;;;1.80;1.70;;;27.80;1.40;;;30.50;69.26;95183.50;653702;216;32140;-77
2022/06/03 13:15:44;;;;;;;2.95;2.75;;;27.40;1.40;;;31.10;68.30;95183.18;647385;212;33030;-76
2022/06/03 13:18:39;;;;;;;3.20;2.60;;;27.40;1.40;;;30.23;71.78;95180.66;647115;216;31604;-76
2022/06/03 13:21:23;;;;;;;8.43;4.55;;;27.20;1.40;;;30.36;69.44;95185.80;647475;216;31872;-76
2022/06/03 13:24:20;;;;;;;4.60;3.45;;;27.10;1.40;;;30.79;69.84;95181.54;648881;216;31709;-76
2022/06/03 13:27:30;;;;;;;14.38;6.50;;;26.90;1.40;;;29.20;74.76;95184.32;650417;216;42153;-75
2022/06/03 13:30:12;;;;;;;5.22;2.80;;;26.40;1.40;;;29.24;77.13;95177.77;622811;226;43221;-76
2022/06/03 13:32:58;;;;;;;2.30;2.03;;;26.30;1.40;;;29.49;74.94;95180.36;647610;216;31712;-76
2022/06/03 13:35:58;;;;;;;3.72;2.10;;;26.30;1.40;;;29.25;75.77;95184.18;649945;216;31602;-76
2022/06/03 13:38:41;;;;;;;4.10;2.00;;;26.30;1.40;;;28.81;78.34;95179.77;646510;216;31570;-74
2022/06/03 13:44:39;;;;;;;1.83;1.73;;;26.00;1.40;;;28.64;80.57;95175.14;651857;216;31543;-76
2022/06/03 13:47:23;;;;;;;2.40;2.20;;;25.90;1.40;;;28.40;82.64;95173.08;648125;212;32119;-76
2022/06/03 13:53:06;;;;;;;1.80;1.70;;;25.80;1.40;;;28.62;82.03;95169.94;647065;212;31593;-76
2022/06/03 13:55:50;;;;;;;4.97;2.05;;;25.80;1.40;;;28.90;80.51;95166.47;650609;216;31535;-76
2022/06/03 13:58:32;;;;;;;1.92;1.80;;;25.90;1.40;;;28.83;82.44;95167.66;643050;216;31626;-76
2022/06/03 14:01:34;;;;;;;2.50;2.00;;;26.10;1.40;;;28.61;81.90;95163.78;648848;216;31514;-76
2022/06/03 14:04:19;;;;;;;2.45;1.62;;;25.90;1.40;;;28.40;84.37;95161.70;648808;216;31523;-76
2022/06/03 14:07:00;;;;;;;4.12;2.10;;;25.80;1.40;;;28.08;87.83;95159.39;651275;212;31508;-76
2022/06/03 14:09:47;;;;;;;3.00;1.60;;;25.70;1.40;;;28.08;87.70;95164.84;638733;212;31676;-76
2022/06/03 14:12:34;;;;;;;1.80;1.70;;;25.60;1.40;;;28.42;85.27;95163.22;648340;212;32059;-76
2022/06/03 14:15:18;;;;;;;1.55;1.45;;;25.70;1.40;;;28.58;85.18;95171.36;649911;216;31572;-76
2022/06/03 14:17:59;;;;;;;1.97;1.77;;;25.60;1.40;;;28.20;86.70;95170.39;651792;216;31654;-76
2022/06/03 14:20:43;;;;;;;1.70;1.60;;;25.50;1.40;;;28.17;89.12;95170.13;644235;216;31575;-75
2022/06/03 14:23:33;;;;;;;1.55;1.45;;;25.50;1.40;;;28.16;89.46;95169.92;649453;216;31714;-76
2022/06/03 14:26:17;;;;;;;1.83;1.70;;;25.40;1.40;;;27.81;91.25;95167.71;649076;216;31601;-76
2022/06/03 14:29:00;;;;;;;2.03;1.85;;;25.30;1.40;;;28.23;89.31;95166.66;646587;212;31588;-76
2022/06/03 14:31:47;;;;;;;4.00;1.85;;;25.40;1.40;;;27.97;91.53;95162.36;647892;215;43565;-76
2022/06/03 14:35:52;;;;;;;2.03;1.90;;;25.30;1.40;;;27.64;93.89;95161.82;649549;216;31596;-76